Time;durP1;ratioP1;P1;durP2;ratioP2;P2;SDS_P1;SDS_P2;PMS_P1;PMS_P2;Temp;Humidity;BMP_temperature;BMP_pressure;BME280_temperature;BME280_humidity;BME280_pressure;Samples;Min_cycle;Max_cycle;Signal;HPM_P1;HPM_P2
2021/09/04 00:01:23;;;;;;;25.68;18.05;;;;;;;12.00;76.17;100446.13;2071907;85;29992;-64
2021/09/04 00:04:26;;;;;;;25.60;18.52;;;;;;;11.99;76.17;100450.25;2071977;85;27626;-64
2021/09/04 00:07:31;;;;;;;26.25;19.20;;;;;;;11.97;76.26;100451.63;2071888;85;28821;-64
2021/09/04 00:10:34;;;;;;;24.23;17.97;;;;;;;11.92;76.30;100455.02;2071760;85;32252;-64
2021/09/04 00:13:37;;;;;;;23.55;17.40;;;;;;;11.89;76.31;100458.34;2071347;85;33788;-64
2021/09/04 00:16:39;;;;;;;23.67;18.30;;;;;;;11.86;76.29;100452.19;2071347;85;30185;-65
2021/09/04 00:19:41;;;;;;;22.58;18.15;;;;;;;11.84;76.22;100450.54;2071449;85;27663;-64
2021/09/04 00:22:44;;;;;;;20.85;16.80;;;;;;;11.79;76.23;100442.73;2071227;85;29499;-64
2021/09/04 00:25:47;;;;;;;21.77;17.92;;;;;;;11.77;76.15;100443.74;2071373;85;31342;-63
2021/09/04 00:28:50;;;;;;;21.93;17.30;;;;;;;11.73;76.26;100443.05;2071128;85;34241;-64
2021/09/04 00:31:52;;;;;;;22.13;17.35;;;;;;;11.72;76.43;100441.80;2071355;85;30032;-64
2021/09/04 00:34:55;;;;;;;23.95;17.75;;;;;;;11.69;76.51;100434.75;2071613;85;27677;-63
2021/09/04 00:37:57;;;;;;;22.93;16.77;;;;;;;11.66;76.52;100431.77;2071336;85;28809;-64
2021/09/04 00:40:59;;;;;;;24.98;17.70;;;;;;;11.63;76.54;100431.92;2068473;85;31455;-64
2021/09/04 00:44:03;;;;;;;25.97;17.35;;;;;;;11.60;76.54;100428.53;2068511;85;33080;-64
2021/09/04 00:47:07;;;;;;;22.17;15.68;;;;;;;11.57;76.49;100432.26;2069060;85;29379;-63
2021/09/04 00:50:11;;;;;;;24.02;17.73;;;;;;;11.52;76.50;100429.78;2068945;85;28077;-64
2021/09/04 00:53:13;;;;;;;22.50;16.52;;;;;;;11.50;76.63;100430.83;2068714;85;29297;-64
2021/09/04 00:56:16;;;;;;;22.45;17.32;;;;;;;11.46;76.59;100428.78;2047313;86;32407;-64
2021/09/04 00:59:19;;;;;;;23.35;17.57;;;;;;;11.43;76.48;100429.39;2068397;86;34207;-64
2021/09/04 01:02:21;;;;;;;25.65;17.87;;;;;;;11.39;76.60;100431.38;2068834;86;29417;-64
2021/09/04 01:05:25;;;;;;;22.00;17.30;;;;;;;11.36;76.67;100436.89;2068437;85;27809;-64
2021/09/04 01:08:29;;;;;;;28.35;17.75;;;;;;;11.32;76.76;100441.55;2068899;86;28705;-63
2021/09/04 01:11:33;;;;;;;26.60;17.82;;;;;;;11.29;76.78;100444.37;2070253;85;31902;-63
2021/09/04 01:14:36;;;;;;;31.07;20.43;;;;;;;11.25;76.79;100445.02;2068780;86;32975;-63
2021/09/04 01:17:39;;;;;;;24.15;18.32;;;;;;;11.21;76.83;100445.25;2068897;85;29399;-64
2021/09/04 01:20:45;;;;;;;23.80;18.42;;;;;;;11.18;76.85;100446.73;2069099;85;27696;-64
2021/09/04 01:23:48;;;;;;;22.20;17.02;;;;;;;11.12;76.79;100445.69;2068964;86;29196;-63
2021/09/04 01:26:51;;;;;;;27.07;17.92;;;;;;;11.08;76.77;100441.84;2068659;86;32139;-63
2021/09/04 01:29:53;;;;;;;27.98;17.57;;;;;;;11.05;76.83;100446.02;2068678;86;33018;-64
2021/09/04 01:32:56;;;;;;;24.82;17.90;;;;;;;11.02;76.91;100447.50;2068646;85;29739;-63
2021/09/04 01:35:59;;;;;;;24.18;18.02;;;;;;;11.01;77.02;100446.22;2068982;85;27710;-63
2021/09/04 01:39:04;;;;;;;26.90;19.27;;;;;;;10.96;77.09;100454.98;2069478;84;28748;-64
2021/09/04 01:42:10;;;;;;;23.73;16.52;;;;;;;10.93;77.18;100445.25;2071944;85;33845;-63
2021/09/04 01:45:14;;;;;;;23.50;16.87;;;;;;;10.89;77.06;100447.22;2071375;85;33874;-63
2021/09/04 01:48:17;;;;;;;23.98;16.90;;;;;;;10.87;77.08;100445.09;2071344;86;29366;-63
2021/09/04 01:51:21;;;;;;;22.80;16.77;;;;;;;10.83;77.13;100439.50;2071811;85;27849;-64
2021/09/04 01:54:23;;;;;;;29.63;18.13;;;;;;;10.81;77.23;100441.38;2072035;85;28643;-64
2021/09/04 01:57:25;;;;;;;24.90;16.48;;;;;;;10.78;77.23;100430.80;2071670;85;32265;-64
2021/09/04 02:00:27;;;;;;;22.42;15.83;;;;;;;10.74;77.15;100432.77;2071354;86;34198;-63
2021/09/04 02:03:29;;;;;;;24.92;16.30;;;;;;;10.72;77.18;100425.73;2071306;86;30236;-63
2021/09/04 02:06:32;;;;;;;25.32;17.15;;;;;;;10.69;77.16;100430.78;2071398;85;27685;-64
2021/09/04 02:09:34;;;;;;;22.22;15.98;;;;;;;10.66;77.18;100429.58;2071631;85;29513;-63
2021/09/04 02:12:37;;;;;;;21.68;16.42;;;;;;;10.63;77.30;100429.27;2071787;85;31892;-63
2021/09/04 02:15:39;;;;;;;23.10;15.95;;;;;;;10.62;77.30;100428.87;2071697;85;33392;-63
2021/09/04 02:18:42;;;;;;;28.30;16.70;;;;;;;10.58;77.28;100423.25;2071972;85;30315;-63
2021/09/04 02:21:44;;;;;;;20.88;16.02;;;;;;;10.56;77.50;100426.47;2072151;85;27698;-63
2021/09/04 02:24:45;;;;;;;22.95;16.60;;;;;;;10.56;77.57;100425.61;2072177;85;29720;-63
2021/09/04 02:27:48;;;;;;;24.50;16.15;;;;;;;10.55;77.60;100427.41;2071566;85;32310;-63
2021/09/04 02:30:50;;;;;;;22.45;16.60;;;;;;;10.52;77.51;100430.23;2071717;85;33674;-63
2021/09/04 02:33:56;;;;;;;25.48;16.67;;;;;;;10.50;77.49;100432.14;2071895;85;30353;-65
2021/09/04 02:36:58;;;;;;;24.55;16.57;;;;;;;10.47;77.46;100425.58;2071367;84;27746;-64
2021/09/04 02:40:00;;;;;;;23.18;18.10;;;;;;;10.46;77.55;100431.88;2071052;86;29775;-64
2021/09/04 02:43:01;;;;;;;27.10;16.65;;;;;;;10.44;77.74;100431.92;2071155;86;31608;-64
2021/09/04 02:46:03;;;;;;;25.25;16.27;;;;;;;10.42;77.75;100431.16;2070748;86;35136;-64
2021/09/04 02:49:05;;;;;;;23.30;15.98;;;;;;;10.41;77.69;100429.87;2071212;86;30511;-64
2021/09/04 02:52:07;;;;;;;22.95;16.77;;;;;;;10.38;77.70;100434.91;2071149;86;27656;-65
2021/09/04 02:55:12;;;;;;;20.70;15.13;;;;;;;10.37;77.63;100442.52;2071208;86;29014;-64
2021/09/04 02:58:14;;;;;;;25.12;16.87;;;;;;;10.34;77.75;100442.66;2071502;86;32182;-64
2021/09/04 03:01:16;;;;;;;23.52;18.07;;;;;;;10.32;77.81;100437.38;2070848;86;34324;-64
2021/09/04 03:04:18;;;;;;;24.60;16.52;;;;;;;10.30;77.80;100435.24;2070814;86;30601;-63
2021/09/04 03:07:20;;;;;;;23.92;16.82;;;;;;;10.29;77.89;100432.16;2071411;85;27702;-64
2021/09/04 03:10:22;;;;;;;23.45;15.98;;;;;;;10.29;78.08;100429.48;2071390;85;28827;-64
2021/09/04 03:13:25;;;;;;;25.90;17.82;;;;;;;10.28;78.07;100433.55;2071349;85;31744;-64
2021/09/04 03:16:28;;;;;;;22.93;17.45;;;;;;;10.28;78.02;100429.53;2071130;85;33113;-64
2021/09/04 03:19:30;;;;;;;22.15;15.30;;;;;;;10.26;78.10;100426.09;2071231;86;29338;-64
2021/09/04 03:22:32;;;;;;;20.55;16.35;;;;;;;10.25;78.12;100427.03;2071130;86;27691;-63
2021/09/04 03:25:34;;;;;;;22.27;14.95;;;;;;;10.23;78.03;100424.89;2070835;86;29591;-63
2021/09/04 03:28:36;;;;;;;23.85;16.67;;;;;;;10.19;77.97;100420.12;2071246;86;31056;-63
2021/09/04 03:31:38;;;;;;;24.90;18.10;;;;;;;10.18;78.11;100419.72;2070919;85;34212;-64
2021/09/04 03:34:41;;;;;;;27.67;19.55;;;;;;;10.18;78.54;100430.42;2070940;85;30390;-63
2021/09/04 03:37:43;;;;;;;25.23;18.02;;;;;;;10.19;78.64;100431.72;2071346;85;27819;-63
2021/09/04 03:40:45;;;;;;;26.23;18.10;;;;;;;10.19;78.65;100433.51;2070820;85;30004;-64
2021/09/04 03:43:48;;;;;;;24.10;17.60;;;;;;;10.20;78.74;100435.25;2071128;86;31994;-63
2021/09/04 03:46:50;;;;;;;27.50;16.75;;;;;;;10.21;78.87;100432.12;2071272;85;33829;-64
2021/09/04 03:49:52;;;;;;;25.40;17.60;;;;;;;10.23;78.82;100430.24;2071252;85;28787;-63
2021/09/04 03:52:54;;;;;;;22.58;15.83;;;;;;;10.22;78.65;100440.55;2071265;86;27758;-64
2021/09/04 03:55:56;;;;;;;22.75;16.32;;;;;;;10.19;78.61;100439.75;2070843;86;30887;-64
2021/09/04 03:58:58;;;;;;;28.20;17.25;;;;;;;10.17;78.60;100432.73;2071122;85;31900;-63
2021/09/04 04:02:00;;;;;;;24.37;18.17;;;;;;;10.15;78.69;100438.14;2070900;86;34045;-63
2021/09/04 04:05:01;;;;;;;23.10;16.23;;;;;;;10.15;78.71;100446.66;2071428;86;30006;-63
2021/09/04 04:08:23;;;;;;;28.52;18.12;;;;;;;10.12;78.48;100451.66;2071011;86;27727;-63
2021/09/04 04:11:25;;;;;;;31.23;17.90;;;;;;;;;;2158220;82;28829;-63
2021/09/04 04:14:29;;;;;;;26.17;16.60;;;;;;;10.14;79.17;100455.62;2158093;82;27652;-64
2021/09/04 04:17:31;;;;;;;28.87;19.42;;;;;;;10.16;79.39;100454.61;2157764;82;34475;-64
2021/09/04 04:20:33;;;;;;;24.25;17.75;;;;;;;10.17;79.35;100453.67;2157826;82;30609;-63
2021/09/04 04:23:35;;;;;;;27.35;19.05;;;;;;;10.22;79.55;100456.61;2158320;82;27684;-63
2021/09/04 04:26:36;;;;;;;26.90;18.23;;;;;;;10.26;79.60;100461.75;2158351;82;28639;-63
2021/09/04 04:29:38;;;;;;;26.57;17.70;;;;;;;10.28;79.46;100458.53;2158096;82;30927;-63
2021/09/04 04:32:40;;;;;;;26.50;17.60;;;;;;;10.32;79.45;100462.82;2157853;82;34153;-63
2021/09/04 04:35:42;;;;;;;29.10;19.25;;;;;;;10.35;79.30;100463.14;2157790;82;30670;-63
2021/09/04 04:38:44;;;;;;;25.05;17.85;;;;;;;10.41;79.53;100456.66;2158340;82;27628;-63
2021/09/04 04:41:46;;;;;;;24.23;16.73;;;;;;;10.44;79.42;100464.06;2158152;82;28711;-63
2021/09/04 04:44:48;;;;;;;22.73;16.25;;;;;;;10.51;79.38;100466.47;2158091;82;31834;-63
2021/09/04 04:47:50;;;;;;;26.90;17.23;;;;;;;10.57;79.31;100464.86;2157964;82;32973;-64
2021/09/04 04:50:53;;;;;;;25.88;16.15;;;;;;;10.63;79.25;100469.45;2158105;82;29120;-63
2021/09/04 04:53:55;;;;;;;24.52;17.92;;;;;;;10.71;79.25;100470.43;2157871;82;27685;-63
2021/09/04 04:56:57;;;;;;;30.80;19.05;;;;;;;10.77;79.29;100476.81;2158141;82;28631;-63
2021/09/04 04:59:59;;;;;;;24.10;17.25;;;;;;;10.87;79.34;100487.11;2157749;82;30935;-64
2021/09/04 05:03:03;;;;;;;24.95;17.92;;;;;;;10.97;79.40;100483.52;2157975;82;33055;-63
2021/09/04 05:06:04;;;;;;;25.30;18.45;;;;;;;11.08;79.35;100471.34;2158239;82;30138;-63
2021/09/04 05:09:06;;;;;;;30.50;19.20;;;;;;;11.22;79.44;100480.52;2157254;82;27676;-63
2021/09/04 05:12:08;;;;;;;34.23;20.82;;;;;;;11.35;79.38;100477.61;2152058;82;28852;-63
2021/09/04 05:15:11;;;;;;;29.65;21.52;;;;;;;11.49;79.42;100476.92;2151611;82;31073;-63
2021/09/04 05:18:13;;;;;;;29.98;21.93;;;;;;;11.63;79.45;100477.54;2151634;82;33646;-63
2021/09/04 05:21:15;;;;;;;39.98;24.18;;;;;;;11.77;79.43;100476.84;2151555;82;30496;-63
2021/09/04 05:24:19;;;;;;;35.40;23.07;;;;;;;11.92;79.55;100469.78;2108231;82;27714;-63
2021/09/04 05:27:21;;;;;;;39.75;26.17;;;;;;;12.08;79.43;100475.25;2111590;84;29895;-63
2021/09/04 05:30:23;;;;;;;33.20;24.25;;;;;;;12.23;79.56;100478.95;2111589;84;31397;-63
2021/09/04 05:33:26;;;;;;;40.20;25.00;;;;;;;12.38;79.51;100480.41;2111333;84;34117;-63
2021/09/04 05:36:28;;;;;;;45.17;25.27;;;;;;;12.53;79.47;100478.69;2111799;84;29482;-63
2021/09/04 05:39:31;;;;;;;40.20;24.70;;;;;;;12.68;79.46;100477.84;2111785;84;27682;-63
2021/09/04 05:42:33;;;;;;;37.33;23.65;;;;;;;12.83;79.41;100476.12;2111724;84;28693;-63
2021/09/04 05:45:35;;;;;;;41.98;24.77;;;;;;;12.99;79.39;100480.14;2111880;84;31099;-63
2021/09/04 05:48:37;;;;;;;38.23;23.55;;;;;;;13.16;79.30;100482.34;2111513;84;33003;-63
2021/09/04 05:51:40;;;;;;;37.42;24.40;;;;;;;13.30;79.11;100474.36;2112109;84;29335;-64
2021/09/04 05:54:42;;;;;;;33.65;23.62;;;;;;;13.45;79.15;100475.30;2118615;83;27768;-63
2021/09/04 05:57:44;;;;;;;36.40;24.10;;;;;;;13.61;78.87;100471.70;2130312;83;29038;-63
2021/09/04 06:00:46;;;;;;;39.53;24.40;;;;;;;13.76;78.76;100469.42;2130183;82;31124;-64
2021/09/04 06:03:49;;;;;;;45.70;25.37;;;;;;;13.92;78.64;100466.69;2130477;83;32965;-63
2021/09/04 06:06:51;;;;;;;38.45;24.98;;;;;;;14.18;78.72;100461.50;2130417;83;30134;-63
2021/09/04 06:09:59;;;;;;;44.08;26.27;;;;;;;14.50;78.61;100465.34;2130636;82;27639;-63
2021/09/04 06:13:06;;;;;;;46.53;27.52;;;;;;;14.83;78.33;100459.27;2129652;83;27694;-63
2021/09/04 06:16:22;;;;;;;38.55;26.20;;;;;;;15.19;77.90;100461.88;2130162;83;31073;-64
2021/09/04 06:19:27;;;;;;;41.13;25.40;;;;;;;15.52;77.80;100461.92;2130143;82;32451;-65
2021/09/04 06:22:29;;;;;;;33.60;22.13;;;;;;;15.88;77.22;100463.57;2126600;83;29311;-64
2021/09/04 06:25:33;;;;;;;32.65;21.52;;;;;;;16.24;76.63;100466.02;2113710;83;27663;-64
2021/09/04 06:28:35;;;;;;;34.15;20.08;;;;;;;16.55;75.43;100463.81;2113816;83;28713;-63
2021/09/04 06:31:37;;;;;;;34.25;20.92;;;;;;;16.91;75.29;100464.81;2113620;84;31846;-63
2021/09/04 06:34:40;;;;;;;32.45;19.98;;;;;;;17.31;75.34;100455.08;2113679;83;33145;-63
2021/09/04 06:37:42;;;;;;;31.23;19.10;;;;;;;17.74;74.59;100464.48;2113637;84;29335;-63
2021/09/04 06:40:44;;;;;;;27.58;18.98;;;;;;;18.17;73.74;100470.28;2113736;83;27680;-63
2021/09/04 06:43:46;;;;;;;29.45;20.12;;;;;;;18.56;73.60;100472.64;2113755;84;29553;-63
2021/09/04 06:46:47;;;;;;;26.73;19.35;;;;;;;18.92;71.48;100469.27;2113640;83;31024;-63
2021/09/04 06:49:49;;;;;;;25.65;17.75;;;;;;;19.31;72.20;100460.17;2113603;84;32893;-63
2021/09/04 06:52:51;;;;;;;27.05;19.25;;;;;;;19.76;71.37;100461.82;2113427;84;30306;-64
2021/09/04 06:55:53;;;;;;;27.10;19.05;;;;;;;20.16;70.32;100465.20;2113785;84;27715;-63
2021/09/04 06:58:55;;;;;;;24.00;17.40;;;;;;;20.38;68.18;100470.60;2113426;83;29393;-63
2021/09/04 07:01:57;;;;;;;27.95;18.77;;;;;;;20.55;67.89;100475.89;2113559;84;30614;-63
2021/09/04 07:04:58;;;;;;;31.07;20.20;;;;;;;20.76;66.90;100482.17;2113678;83;33752;-64
2021/09/04 07:08:01;;;;;;;31.80;19.90;;;;;;;21.04;66.39;100477.45;2113705;84;30276;-63
2021/09/04 07:11:03;;;;;;;27.40;18.75;;;;;;;21.32;65.03;100488.05;2113698;84;27655;-63
2021/09/04 07:14:05;;;;;;;30.32;18.55;;;;;;;21.35;63.66;100491.82;2113563;83;29475;-63
2021/09/04 07:17:07;;;;;;;30.68;17.92;;;;;;;21.30;62.80;100488.68;2113604;83;30630;-63
2021/09/04 07:20:11;;;;;;;25.75;16.87;;;;;;;21.58;63.88;100489.34;2113539;84;33744;-64
2021/09/04 07:23:21;;;;;;;26.45;16.77;;;;;;;21.96;63.90;100486.24;2113661;82;29500;-64
2021/09/04 07:26:27;;;;;;;24.98;17.42;;;;;;;22.45;63.58;100488.37;2113414;83;28212;-64
2021/09/04 07:29:32;;;;;;;23.83;16.48;;;;;;;22.96;62.46;100488.52;2113274;84;28736;-64
2021/09/04 07:32:34;;;;;;;22.70;16.20;;;;;;;23.39;61.33;100488.84;2095494;84;31001;-64
2021/09/04 07:35:37;;;;;;;25.17;17.25;;;;;;;23.61;60.17;100482.89;2113213;84;33867;-64
2021/09/04 07:38:39;;;;;;;22.25;15.85;;;;;;;23.71;58.85;100480.08;2113738;83;29340;-65
2021/09/04 07:41:42;;;;;;;22.27;16.23;;;;;;;23.82;58.67;100482.58;2113467;84;27745;-64
2021/09/04 07:44:45;;;;;;;24.40;15.88;;;;;;;24.10;58.40;100481.59;2113496;83;28679;-64
2021/09/04 07:47:48;;;;;;;20.40;16.40;;;;;;;24.39;56.95;100485.39;2113282;83;31059;-64
2021/09/04 07:50:50;;;;;;;23.05;16.95;;;;;;;24.57;57.09;100488.04;2113675;83;32993;-63
2021/09/04 07:53:56;;;;;;;22.02;15.93;;;;;;;24.76;55.93;100492.11;2113670;84;29366;-64
2021/09/04 07:56:58;;;;;;;26.65;17.45;;;;;;;24.99;55.94;100497.33;2113453;84;27683;-65
2021/09/04 08:00:01;;;;;;;23.47;16.25;;;;;;;25.12;54.81;100495.48;2113278;84;28800;-64
2021/09/04 08:03:04;;;;;;;22.20;14.98;;;;;;;25.20;55.15;100491.06;2113316;84;31800;-71
2021/09/04 08:06:06;;;;;;;21.57;15.20;;;;;;;25.43;54.64;100499.55;2113648;83;33646;-69
2021/09/04 08:09:08;;;;;;;26.05;17.67;;;;;;;25.60;54.39;100494.92;2113582;84;29328;-68
2021/09/04 08:12:10;;;;;;;22.05;14.90;;;;;;;25.78;53.49;100503.85;2113706;84;27708;-72
2021/09/04 08:15:13;;;;;;;22.27;14.65;;;;;;;25.88;52.67;100500.94;2113695;84;28235;-70
2021/09/04 08:18:15;;;;;;;22.95;16.80;;;;;;;26.02;53.27;100504.02;2113742;84;31027;-63
2021/09/04 08:21:17;;;;;;;22.98;16.87;;;;;;;26.37;53.14;100508.81;2113502;83;33842;-63
2021/09/04 08:24:19;;;;;;;23.70;16.95;;;;;;;26.49;50.87;100511.52;2130032;83;29503;-63
2021/09/04 08:27:21;;;;;;;21.82;15.28;;;;;;;26.48;51.07;100515.30;2142380;83;27777;-63
2021/09/04 08:30:23;;;;;;;20.65;15.50;;;;;;;26.43;51.23;100513.61;2142562;82;29459;-63
2021/09/04 08:33:25;;;;;;;23.22;15.55;;;;;;;26.53;51.44;100507.92;2142608;83;32189;-63
2021/09/04 08:36:28;;;;;;;20.05;15.50;;;;;;;26.64;50.88;100510.28;2142138;83;34127;-63
2021/09/04 08:39:30;;;;;;;22.85;16.32;;;;;;;26.66;50.31;100509.59;2111745;83;29472;-63
2021/09/04 08:42:32;;;;;;;24.12;17.70;;;;;;;26.56;49.62;100508.08;2142334;83;27694;-64
2021/09/04 08:45:34;;;;;;;22.58;17.25;;;;;;;26.07;49.82;100507.11;2142165;82;30801;-63
2021/09/04 08:48:38;;;;;;;24.63;16.95;;;;;;;25.78;49.70;100517.58;2142295;83;31442;-63
2021/09/04 08:51:40;;;;;;;26.07;18.10;;;;;;;25.48;50.38;100514.99;2142723;83;33895;-63
2021/09/04 08:54:42;;;;;;;26.27;17.02;;;;;;;25.28;49.57;100516.62;2142149;83;30696;-63
2021/09/04 08:57:45;;;;;;;23.25;16.60;;;;;;;24.97;49.92;100518.59;2142605;83;27634;-63
2021/09/04 09:00:47;;;;;;;24.95;17.17;;;;;;;24.60;49.11;100528.45;2142222;83;30030;-62
2021/09/04 09:03:51;;;;;;;24.35;16.32;;;;;;;24.14;49.17;100525.95;2142485;83;31062;-61
2021/09/04 09:06:54;;;;;;;25.43;17.27;;;;;;;23.61;49.37;100522.55;2142614;83;33064;-62
2021/09/04 09:09:56;;;;;;;27.67;16.75;;;;;;;23.36;50.37;100530.52;2142160;83;30182;-62
2021/09/04 09:12:59;;;;;;;24.55;17.70;;;;;;;23.31;51.19;100534.21;2142375;83;27878;-62
2021/09/04 09:16:03;;;;;;;25.68;18.23;;;;;;;23.24;51.04;100538.59;2142266;83;28692;-62
2021/09/04 09:19:05;;;;;;;25.35;17.37;;;;;;;23.10;51.54;100535.83;2088696;83;31930;-61
2021/09/04 09:22:17;;;;;;;25.75;18.27;;;;;;;23.23;52.00;100534.13;2142557;83;34131;-62
2021/09/04 09:25:21;;;;;;;24.20;17.55;;;;;;;23.23;51.58;100520.47;2100257;83;30097;-63
2021/09/04 09:28:25;;;;;;;27.87;18.12;;;;;;;23.34;51.29;100528.44;2088931;84;28278;-62
2021/09/04 09:31:33;;;;;;;23.10;17.50;;;;;;;23.33;51.75;100525.36;2060673;84;28705;-62
2021/09/04 09:34:38;;;;;;;26.35;17.70;;;;;;;23.42;51.51;100526.80;2088591;84;31100;-63
2021/09/04 09:37:45;;;;;;;28.35;18.67;;;;;;;23.57;51.75;100518.92;2092046;84;32801;-62
2021/09/04 09:40:52;;;;;;;25.97;17.35;;;;;;;23.72;51.63;100515.98;2088057;85;29507;-62
2021/09/04 09:43:55;;;;;;;22.67;17.80;;;;;;;23.74;50.94;100514.48;2082690;84;27667;-63
2021/09/04 09:47:02;;;;;;;26.02;17.92;;;;;;;23.65;51.17;100514.39;2089717;83;28869;-63
2021/09/04 09:50:07;;;;;;;28.38;16.12;;;;;;;23.55;51.19;100519.09;2089739;84;31105;-62
2021/09/04 09:53:15;;;;;;;24.43;15.68;;;;;;;23.34;50.24;100518.87;2090092;84;33772;-63
2021/09/04 09:56:30;;;;;;;26.07;17.55;;;;;;;23.19;51.08;100528.58;2089134;85;29627;-63
2021/09/04 09:59:34;;;;;;;22.58;16.25;;;;;;;23.16;51.06;100524.78;2088661;84;27702;-63
2021/09/04 10:02:41;;;;;;;27.77;16.20;;;;;;;23.06;51.40;100527.08;2093016;84;33108;-62
2021/09/04 10:05:47;;;;;;;22.95;14.65;;;;;;;22.98;51.22;100522.86;2079124;84;31130;-70
2021/09/04 10:08:52;;;;;;;24.70;15.78;;;;;;;22.80;51.39;100522.82;2096301;84;33883;-63
2021/09/04 10:12:00;;;;;;;20.35;14.95;;;;;;;22.63;51.35;100521.73;2096624;83;30126;-62
2021/09/04 10:15:06;;;;;;;16.90;13.93;;;;;;;22.48;51.67;100520.00;2042338;86;27726;-62
2021/09/04 10:18:11;;;;;;;20.37;14.55;;;;;;;22.51;52.21;100518.31;2095525;84;28213;-63
2021/09/04 10:21:16;;;;;;;22.30;14.98;;;;;;;22.66;51.44;100520.59;2042024;87;31899;-63
2021/09/04 10:24:22;;;;;;;21.02;14.45;;;;;;;22.69;51.82;100518.89;2076845;83;33042;-62
2021/09/04 10:27:34;;;;;;;19.32;13.85;;;;;;;22.81;51.94;100519.57;2074952;83;29428;-62
2021/09/04 10:30:42;;;;;;;20.23;13.78;;;;;;;22.91;51.80;100516.30;2092679;84;27700;-63
2021/09/04 10:33:46;;;;;;;21.60;13.13;;;;;;;23.03;51.23;100515.08;2110763;84;28704;-62
2021/09/04 10:37:12;;;;;;;21.77;13.93;;;;;;;23.06;51.45;100520.25;2107667;84;30984;-62
2021/09/04 10:40:18;;;;;;;18.52;14.23;;;;;;;22.95;50.95;100520.95;2107528;84;32963;-62
2021/09/04 10:43:23;;;;;;;18.75;13.43;;;;;;;22.76;51.42;100521.39;2066274;84;29385;-62
2021/09/04 10:46:28;;;;;;;22.00;13.85;;;;;;;22.63;51.73;100523.61;2107597;84;27540;-63
2021/09/04 10:49:44;;;;;;;19.42;12.90;;;;;;;22.48;51.68;100517.76;2053317;84;29468;-63
2021/09/04 12:06:55;;;;;;;17.67;12.67;;;;;;;22.43;50.99;100499.10;2048499;83;28525;-60
2021/09/04 12:13:22;;;;;;;16.97;12.43;;;;;;;22.34;50.59;100491.78;1946062;90;27709;-75
2021/09/04 12:16:25;;;;;;;20.10;12.20;;;;;;;22.35;50.26;100491.63;1945820;91;28343;-73
2021/09/04 12:19:38;;;;;;;15.65;11.30;;;;;;;22.41;50.23;100499.23;1945909;91;28683;-74
2021/09/04 12:23:00;;;;;;;17.87;11.30;;;;;;;22.50;50.48;100501.61;1945870;91;31300;-74
2021/09/04 12:26:48;;;;;;;14.47;11.25;;;;;;;22.66;50.42;100491.91;1891436;93;27970;-75
